KDAN/DAN METAR and TAF weather

Enter ICAO airport designator
Station Type Date Time Source
KDAN METAR 2018/04/20 08:53 UTC NOAA

KDAN 200853Z AUTO 23003KT 10SM CLR 00/M02 A3027 RMK AO2 SLP245 T00001017 53004


Station Type Date Time Source
KDAN Decoded METAR 2018/04/20 08:53 UTC NOAA

DANVILLE REGIONAL AIRPORT, VA, United States (KDAN) 36-34N 079-20W 175M
Apr 20, 2018 - 04:53 AM EDT / 2018.04.20 0853 UTC
Wind: from the SW (230 degrees) at 3 MPH (3 KT):0
Visibility: 10 mile(s):0
Sky conditions: clear
Temperature: 32.0 F (0.0 C)
Dew Point: 28.9 F (-1.7 C)
Relative Humidity: 88%
Pressure (altimeter): 30.27 in. Hg (1025 hPa)
Pressure tendency: 0.01 inches (0.4 hPa) higher than three hours ago
ob: KDAN 200853Z AUTO 23003KT 10SM CLR 00/M02 A3027 RMK AO2 SLP245 T00001017 53004
cycle: 9

Station Type Date Time Source
KDAN TAF 2018/04/20 06:22 UTC NOAA

TAF KDAN 200520Z 2006/2106 33006KT P6SM SKC
FM201300 35007KT P6SM SKC
FM210200 01005KT P6SM SKC


Example: see airport list